Portada
METAR-TAF:

METAR-TAF

Aeropuertos :

Aeropuerto Internacional Roman Tmetuchl

Koror, Babeldaob, Palaos

latitud: 07-22N, longitud: 134-32E, altitud: 54 m

Observación

El informe se hizo hace 54 minutos, a las 18:54 UTC
Viento calma
Temperatura 24°C
Humedad 94%
Presión 1011 hPa
Visibilidad: 22.5 km
Cielo nuboso a una altura de 1600 ft
Cielo nuboso a una altura de 30000 ft

METAR: PTRO 211854Z 00000KT 14SM BKN016 BKN300 24/23 A2984

Hora: 04:48 (19:48 UTC)

Pronóstico

El informe se hizo hace 2 horas y 18 minutos, a las 17:30 UTC
Pronóstico válido del 21 a las 18 UTC al 22 a las 18 UTC
Viento 4 kt con dirección variable
Visibilidad: 10 km
Nubes dispersas a una altura de 1600 ft
Cielo nuboso a una altura de 12000 ft
chaparrones en las proximidades

TAF: PTRO 211730Z 2118/2218 VRB04KT P6SM VCSH SCT016 BKN120

Observaciones y pronósticos meteorológicos de más de 4000 aeropuertos (mensajes METAR y TAF).

Los puntos amarillos y rojos representan las estaciones disponibles.

Ponga el ratón en el punto deseado para ver el nombre de la estación.

Haga clic para ver las observaciones y los pronósticos meteorológicos.

Para cambiar el mapa : haga clic en los botones verdes con una cruz de color negro para hacer un zoom, en el botón verde con un guión para alejar o en las flechas verdes para mapas adyacentes.


METAR-TAF: